createdAt,value
2022-12-08T00:01:22.861Z,88.13
2022-12-08T00:03:49.801Z,87.62
2022-12-08T00:06:48.124Z,87.69
2022-12-08T00:09:23.539Z,87.87
2022-12-08T00:11:51.766Z,88.10
2022-12-08T00:14:18.428Z,87.64
2022-12-08T00:16:45.186Z,87.96
2022-12-08T00:19:11.613Z,87.71
2022-12-08T00:21:37.947Z,87.65
2022-12-08T00:24:04.539Z,88.04
2022-12-08T00:26:30.879Z,87.94
2022-12-08T00:28:57.288Z,87.95
2022-12-08T00:31:23.705Z,88.02
2022-12-08T00:33:50.118Z,88.14
2022-12-08T00:36:16.606Z,87.49
2022-12-08T00:38:44.667Z,87.41
2022-12-08T00:41:14.483Z,87.92
2022-12-08T00:43:41.527Z,88.30
2022-12-08T00:46:08.451Z,87.74
2022-12-08T00:48:34.848Z,88.63
2022-12-08T00:51:01.268Z,87.78
2022-12-08T00:53:27.596Z,88.13
2022-12-08T00:55:53.961Z,87.75
2022-12-08T00:58:20.305Z,87.26
2022-12-08T01:00:46.744Z,87.87
2022-12-08T01:03:13.235Z,87.91
2022-12-08T01:05:39.730Z,88.22
2022-12-08T01:08:07.728Z,88.01
2022-12-08T01:10:38.011Z,87.49
2022-12-08T01:13:04.560Z,87.86
2022-12-08T01:15:30.934Z,87.22
2022-12-08T01:17:57.349Z,87.86
2022-12-08T01:20:24.070Z,87.73
2022-12-08T01:22:50.445Z,88.31
2022-12-08T01:25:16.850Z,87.60
2022-12-08T01:27:43.178Z,87.88
2022-12-08T01:30:10.118Z,87.70
2022-12-08T01:32:36.792Z,88.10
2022-12-08T01:35:03.206Z,87.40
2022-12-08T01:37:29.666Z,88.04
2022-12-08T01:39:56.058Z,88.28
2022-12-08T01:42:23.315Z,88.32
2022-12-08T01:44:54.668Z,87.94
2022-12-08T01:47:22.905Z,87.46
2022-12-08T01:49:49.416Z,88.18
2022-12-08T01:52:31.562Z,88.36
2022-12-08T01:55:03.968Z,87.76
2022-12-08T01:57:35.300Z,88.21
2022-12-08T02:00:14.137Z,87.95
2022-12-08T02:02:53.202Z,88.00
2022-12-08T02:05:23.004Z,88.29
2022-12-08T02:07:50.118Z,87.90
2022-12-08T02:10:20.467Z,88.37
2022-12-08T02:12:48.858Z,88.07
2022-12-08T02:15:15.640Z,88.25
2022-12-08T02:18:00.122Z,88.25
2022-12-08T02:20:32.074Z,88.65
2022-12-08T02:23:15.076Z,88.29
2022-12-08T02:26:03.366Z,87.98
2022-12-08T02:28:50.961Z,88.17
2022-12-08T02:31:23.363Z,88.09
2022-12-08T02:34:08.979Z,87.75
2022-12-08T02:36:40.180Z,88.41
2022-12-08T02:39:22.238Z,88.49
2022-12-08T02:41:51.574Z,87.89
2022-12-08T02:44:27.916Z,88.02
2022-12-08T02:47:01.099Z,88.19
2022-12-08T02:49:29.789Z,88.00
2022-12-08T02:52:26.660Z,88.40
2022-12-08T02:54:57.577Z,88.13
2022-12-08T02:57:51.429Z,87.71
2022-12-08T03:00:22.403Z,87.85
2022-12-08T03:03:13.148Z,89.05
2022-12-08T03:05:54.834Z,88.56
2022-12-08T03:08:49.989Z,88.73
2022-12-08T03:11:36.940Z,87.81
2022-12-08T03:14:06.909Z,88.15
2022-12-08T03:16:38.636Z,88.49
2022-12-08T03:19:13.305Z,88.00
2022-12-08T03:21:41.149Z,87.89
2022-12-08T03:24:10.302Z,88.10
2022-12-08T03:26:51.771Z,88.04
2022-12-08T03:29:18.792Z,87.86
2022-12-08T03:31:51.831Z,87.63
2022-12-08T03:34:19.874Z,87.65
2022-12-08T03:36:46.237Z,87.95
2022-12-08T03:39:12.714Z,88.13
2022-12-08T03:41:39.061Z,87.89
2022-12-08T03:44:05.454Z,88.46
2022-12-08T03:46:31.858Z,88.32
2022-12-08T03:48:58.427Z,88.31
2022-12-08T03:51:24.901Z,88.17
2022-12-08T03:53:51.266Z,88.30
2022-12-08T03:56:32.387Z,87.91
2022-12-08T03:58:59.213Z,88.62
2022-12-08T04:01:25.935Z,89.21
2022-12-08T04:03:52.340Z,87.78
2022-12-08T04:06:19.022Z,88.12
2022-12-08T04:08:45.578Z,88.45
2022-12-08T04:11:12.038Z,88.70
2022-12-08T04:13:39.938Z,88.22
2022-12-08T04:16:07.435Z,88.27
2022-12-08T04:18:34.982Z,88.22
2022-12-08T04:21:01.724Z,88.20
2022-12-08T04:23:28.085Z,89.04
2022-12-08T04:25:54.593Z,88.69
2022-12-08T04:28:21.676Z,88.40
2022-12-08T04:30:49.002Z,88.53
2022-12-08T04:33:15.465Z,88.63
2022-12-08T04:35:41.804Z,88.77
2022-12-08T04:38:08.216Z,88.36
2022-12-08T04:40:34.600Z,88.94
2022-12-08T04:43:00.960Z,88.81
2022-12-08T04:45:27.305Z,87.98
2022-12-08T04:47:53.654Z,88.38
2022-12-08T04:50:19.989Z,88.67
2022-12-08T04:52:46.328Z,88.92
2022-12-08T04:55:12.774Z,88.99
2022-12-08T04:57:39.115Z,88.60
2022-12-08T05:00:06.602Z,88.88
2022-12-08T05:02:33.369Z,88.69
2022-12-08T05:04:59.940Z,88.49
2022-12-08T05:07:26.452Z,89.04
2022-12-08T05:09:52.831Z,88.61
2022-12-08T05:12:19.161Z,88.64
2022-12-08T05:14:47.085Z,89.42
2022-12-08T05:17:14.390Z,89.07
2022-12-08T05:19:40.730Z,88.80
2022-12-08T05:22:07.077Z,89.29
2022-12-08T05:24:33.465Z,89.27
2022-12-08T05:26:59.937Z,89.49
2022-12-08T05:29:26.429Z,89.73
2022-12-08T05:31:52.823Z,89.01
2022-12-08T05:34:19.293Z,89.82
2022-12-08T05:36:45.638Z,89.20
2022-12-08T05:39:15.476Z,89.66
2022-12-08T05:41:42.089Z,89.55
2022-12-08T05:44:08.665Z,89.41
2022-12-08T05:46:35.825Z,89.75
2022-12-08T05:49:03.297Z,89.93
2022-12-08T05:51:29.921Z,89.47
2022-12-08T05:53:56.777Z,90.22
2022-12-08T05:56:23.732Z,89.69
2022-12-08T05:58:50.220Z,89.78
2022-12-08T06:01:28.069Z,89.17
2022-12-08T06:03:55.145Z,89.21
2022-12-08T06:06:21.912Z,89.73
2022-12-08T06:08:48.764Z,88.90
2022-12-08T06:11:23.539Z,88.98
2022-12-08T06:13:50.125Z,89.42
2022-12-08T06:16:17.165Z,88.31
2022-12-08T06:18:44.250Z,88.68
2022-12-08T06:21:12.232Z,88.84
2022-12-08T06:23:38.716Z,88.89
2022-12-08T06:26:15.493Z,88.11
2022-12-08T06:28:42.722Z,89.05
2022-12-08T06:31:09.062Z,89.13
2022-12-08T06:33:36.429Z,88.71
2022-12-08T06:36:03.351Z,89.05
2022-12-08T06:38:30.077Z,89.54
2022-12-08T06:40:58.060Z,88.70
2022-12-08T06:43:25.588Z,88.96
2022-12-08T06:45:52.523Z,89.60
2022-12-08T06:48:19.598Z,89.46
2022-12-08T06:50:46.023Z,89.40
2022-12-08T06:53:13.444Z,89.73
2022-12-08T06:55:59.337Z,89.70
2022-12-08T06:58:26.155Z,89.45
2022-12-08T07:00:52.648Z,89.21
2022-12-08T07:03:19.063Z,89.97
2022-12-08T07:05:45.391Z,89.83
2022-12-08T07:08:11.867Z,89.81
2022-12-08T07:10:38.266Z,89.56
2022-12-08T07:13:04.662Z,89.93
2022-12-08T07:15:31.124Z,90.13
2022-12-08T07:18:00.117Z,88.99
2022-12-08T07:20:27.275Z,89.28
2022-12-08T07:22:53.971Z,89.86
2022-12-08T07:25:20.471Z,88.78
2022-12-08T07:27:47.212Z,89.35
2022-12-08T07:30:14.153Z,89.07
2022-12-08T07:32:40.663Z,89.32
2022-12-08T07:35:08.292Z,89.26
2022-12-08T07:37:35.963Z,88.57
2022-12-08T07:40:02.848Z,88.57
2022-12-08T07:42:29.629Z,88.25
2022-12-08T07:44:56.100Z,89.20
2022-12-08T07:47:22.492Z,89.32
2022-12-08T07:49:48.901Z,89.44
2022-12-08T07:52:15.248Z,88.94
2022-12-08T07:54:41.634Z,88.61
2022-12-08T07:57:09.478Z,89.22
2022-12-08T07:59:35.889Z,89.69
2022-12-08T08:02:23.006Z,89.79
2022-12-08T08:04:51.804Z,89.88
2022-12-08T08:07:18.184Z,89.91
2022-12-08T08:09:45.570Z,90.06
2022-12-08T08:12:29.581Z,89.56
2022-12-08T08:14:56.929Z,89.84
2022-12-08T08:17:23.695Z,88.54
2022-12-08T08:19:50.204Z,88.96
2022-12-08T08:22:16.526Z,88.52
2022-12-08T08:24:45.081Z,89.13
2022-12-08T08:27:12.223Z,89.90
2022-12-08T08:29:38.574Z,89.21
2022-12-08T08:32:05.116Z,89.13
2022-12-08T08:34:31.485Z,89.39
2022-12-08T08:36:58.018Z,89.00
2022-12-08T08:39:24.397Z,88.13
2022-12-08T08:41:50.772Z,89.39
2022-12-08T08:44:17.152Z,88.29
2022-12-08T08:46:43.603Z,88.80
2022-12-08T08:49:10.046Z,88.86
2022-12-08T08:51:36.502Z,89.06
2022-12-08T08:54:02.971Z,88.93
2022-12-08T08:56:29.316Z,88.75
2022-12-08T08:58:55.704Z,88.56
2022-12-08T09:01:26.931Z,89.37
2022-12-08T09:03:54.896Z,89.15
2022-12-08T09:06:21.828Z,89.39
2022-12-08T09:08:48.977Z,88.75
2022-12-08T09:11:16.160Z,88.90
2022-12-08T09:13:42.572Z,88.97
2022-12-08T09:16:11.045Z,89.24
2022-12-08T09:18:37.501Z,88.95
2022-12-08T09:21:06.572Z,89.38
2022-12-08T09:23:35.646Z,89.64
2022-12-08T09:26:04.884Z,90.00
2022-12-08T09:28:32.088Z,89.63
2022-12-08T09:30:58.529Z,89.01
2022-12-08T09:33:24.918Z,89.17
2022-12-08T09:35:51.250Z,89.19
2022-12-08T09:38:17.638Z,89.58
2022-12-08T09:40:50.732Z,89.70
2022-12-08T09:43:38.918Z,89.55
2022-12-08T09:46:09.257Z,89.27
2022-12-08T09:48:39.579Z,89.62
2022-12-08T09:51:06.123Z,89.72
2022-12-08T09:53:39.370Z,89.28
2022-12-08T09:56:12.780Z,89.72
2022-12-08T09:58:55.152Z,89.04
2022-12-08T10:01:24.287Z,89.90
2022-12-08T10:03:52.132Z,89.75
2022-12-08T10:06:31.573Z,89.72
2022-12-08T10:09:36.113Z,89.66
2022-12-08T10:12:41.599Z,89.29
2022-12-08T10:15:29.828Z,89.18
2022-12-08T10:18:00.662Z,89.79
2022-12-08T10:20:40.511Z,89.26
2022-12-08T10:23:12.620Z,89.44
2022-12-08T10:25:58.474Z,90.10
2022-12-08T10:28:24.857Z,90.16
2022-12-08T10:30:51.268Z,89.40
2022-12-08T10:33:20.431Z,89.58
2022-12-08T10:35:53.007Z,89.34
2022-12-08T10:38:42.411Z,89.58
2022-12-08T10:41:11.495Z,89.36
2022-12-08T10:43:48.834Z,89.26
2022-12-08T10:46:18.996Z,89.57
2022-12-08T10:49:08.817Z,89.96
2022-12-08T10:51:38.923Z,89.44
2022-12-08T10:54:08.398Z,90.52
2022-12-08T10:56:34.763Z,90.43
2022-12-08T10:59:16.254Z,89.97
2022-12-08T11:01:47.034Z,90.15
2022-12-08T11:04:18.344Z,89.96
2022-12-08T11:06:46.398Z,90.21
2022-12-08T11:09:15.487Z,89.88
2022-12-08T11:11:49.999Z,89.15
2022-12-08T11:14:22.912Z,89.62
2022-12-08T11:17:23.054Z,89.35
2022-12-08T11:20:23.026Z,89.39
2022-12-08T11:22:54.999Z,89.74
2022-12-08T11:25:28.195Z,89.00
2022-12-08T11:27:58.138Z,89.44
2022-12-08T11:30:35.981Z,89.10
2022-12-08T11:33:17.167Z,89.58
2022-12-08T11:35:47.318Z,89.39
2022-12-08T11:38:23.636Z,89.71
2022-12-08T11:41:10.954Z,89.64
2022-12-08T11:43:56.412Z,89.39
2022-12-08T11:46:32.265Z,89.72
2022-12-08T11:49:06.705Z,89.42
2022-12-08T11:51:39.296Z,89.51
2022-12-08T11:54:08.948Z,89.71
2022-12-08T11:56:42.396Z,89.07
2022-12-08T11:59:18.826Z,89.62
2022-12-08T12:01:45.369Z,89.27
2022-12-08T12:04:14.587Z,89.71
2022-12-08T12:07:12.519Z,89.30
2022-12-08T12:09:57.123Z,89.52
2022-12-08T12:12:55.860Z,88.97
2022-12-08T12:16:09.722Z,89.48
2022-12-08T12:18:46.498Z,89.09
2022-12-08T12:21:29.208Z,89.32
2022-12-08T12:23:59.451Z,88.67
2022-12-08T12:26:29.195Z,88.35
2022-12-08T12:29:12.810Z,88.83
2022-12-08T12:31:43.133Z,89.08
2022-12-08T12:34:51.112Z,89.88
2022-12-08T12:37:21.992Z,89.37
2022-12-08T12:40:11.308Z,89.44
2022-12-08T12:42:44.347Z,89.95
2022-12-08T12:45:16.859Z,89.48
2022-12-08T12:47:55.997Z,89.43
2022-12-08T12:50:36.979Z,88.82
2022-12-08T12:53:07.903Z,88.65
2022-12-08T12:55:46.287Z,89.43
2022-12-08T12:58:35.367Z,89.75
2022-12-08T13:01:13.891Z,89.95
2022-12-08T13:03:43.910Z,90.20
2022-12-08T13:06:15.030Z,89.82
2022-12-08T13:08:55.031Z,90.23
2022-12-08T13:11:22.458Z,89.64
2022-12-08T13:13:56.782Z,88.81
2022-12-08T13:16:26.068Z,89.62
2022-12-08T13:18:57.483Z,89.62
2022-12-08T13:21:31.877Z,89.31
2022-12-08T13:24:24.221Z,88.90
2022-12-08T13:27:10.923Z,89.08
2022-12-08T13:29:38.474Z,89.56
2022-12-08T13:33:16.154Z,89.90
2022-12-08T13:35:30.159Z,90.21
2022-12-08T13:37:59.870Z,89.52
2022-12-08T13:40:30.076Z,89.48
2022-12-08T13:43:10.386Z,89.51
2022-12-08T13:46:41.941Z,89.29
2022-12-08T13:55:26.948Z,89.37
2022-12-08T13:57:29.507Z,88.90
2022-12-08T14:00:01.924Z,88.58
2022-12-08T14:02:47.338Z,88.83
2022-12-08T14:05:34.893Z,88.65
2022-12-08T14:08:02.380Z,88.59
2022-12-08T14:10:31.841Z,88.66
2022-12-08T14:13:11.980Z,88.15
2022-12-08T14:15:40.078Z,87.98
2022-12-08T14:18:21.340Z,88.14
2022-12-08T14:21:20.271Z,87.77
2022-12-08T14:23:45.963Z,87.62
2022-12-08T14:26:12.739Z,88.48
2022-12-08T14:28:44.790Z,88.75
2022-12-08T14:31:13.945Z,88.47
2022-12-08T14:33:40.658Z,87.94
2022-12-08T14:36:09.659Z,88.42
2022-12-08T14:38:36.269Z,88.36
2022-12-08T14:41:09.152Z,88.85
2022-12-08T14:43:35.879Z,88.53
2022-12-08T14:46:06.470Z,88.96
2022-12-08T14:48:42.768Z,88.75
2022-12-08T14:51:19.595Z,88.66
2022-12-08T14:54:09.417Z,89.35
2022-12-08T14:56:35.813Z,88.60
2022-12-08T14:59:19.613Z,88.47
2022-12-08T15:01:48.118Z,88.94
2022-12-08T15:04:14.683Z,89.19
2022-12-08T15:06:58.109Z,88.77
2022-12-08T15:09:40.836Z,88.76
2022-12-08T15:12:13.195Z,89.19
2022-12-08T15:15:01.208Z,88.70
2022-12-08T15:17:41.482Z,88.87
2022-12-08T15:20:34.810Z,88.69
2022-12-08T15:23:02.566Z,88.60
2022-12-08T15:25:29.041Z,88.71
2022-12-08T15:27:56.999Z,88.99
2022-12-08T15:30:26.283Z,89.31
2022-12-08T15:32:54.091Z,88.72
2022-12-08T15:35:21.154Z,88.96
2022-12-08T15:37:47.696Z,89.08
2022-12-08T15:40:19.931Z,88.46
2022-12-08T15:42:46.514Z,88.75
2022-12-08T15:45:14.406Z,88.12
2022-12-08T15:47:42.326Z,88.50
2022-12-08T15:50:22.810Z,88.46
2022-12-08T15:52:50.519Z,88.46
2022-12-08T15:55:19.160Z,88.72
2022-12-08T16:00:52.357Z,88.74
2022-12-08T16:04:09.412Z,89.12
2022-12-08T16:07:04.738Z,89.39
2022-12-08T16:09:12.783Z,89.16
2022-12-08T16:12:08.155Z,88.79
2022-12-08T16:17:22.370Z,88.41
2022-12-08T16:19:48.915Z,89.08
2022-12-08T16:22:52.424Z,88.48
2022-12-08T16:25:21.326Z,88.51
2022-12-08T16:28:01.483Z,88.64
2022-12-08T16:30:29.771Z,89.03
2022-12-08T16:32:56.139Z,88.27
2022-12-08T16:35:22.522Z,88.64
2022-12-08T16:37:48.926Z,88.59
2022-12-08T16:40:15.476Z,88.87
2022-12-08T16:42:45.707Z,88.71
2022-12-08T16:45:20.251Z,88.78
2022-12-08T16:47:53.857Z,88.45
2022-12-08T16:50:24.213Z,87.93
2022-12-08T16:52:56.760Z,88.43
2022-12-08T16:55:23.154Z,88.58
2022-12-08T16:57:49.863Z,88.53
2022-12-08T17:00:27.873Z,88.25
2022-12-08T17:02:55.156Z,88.95
2022-12-08T17:05:23.308Z,89.02
2022-12-08T17:07:51.336Z,88.63
2022-12-08T17:10:22.761Z,88.68
2022-12-08T17:12:49.944Z,88.63
2022-12-08T17:15:19.491Z,89.24
2022-12-08T17:17:45.863Z,88.08
2022-12-08T17:20:18.263Z,88.85
2022-12-08T17:22:44.982Z,88.65
2022-12-08T17:25:11.686Z,89.76
2022-12-08T17:27:39.083Z,89.02
2022-12-08T17:30:08.343Z,88.96
2022-12-08T17:32:35.225Z,89.43
2022-12-08T17:35:01.677Z,89.12
2022-12-08T17:37:28.078Z,89.65
2022-12-08T17:39:54.542Z,89.26
2022-12-08T17:42:25.752Z,89.79
2022-12-08T17:44:52.987Z,89.52
2022-12-08T17:47:19.390Z,89.16
2022-12-08T17:49:45.911Z,89.16
2022-12-08T17:52:13.725Z,89.24
2022-12-08T17:54:40.319Z,89.50
2022-12-08T17:57:06.774Z,89.60
2022-12-08T17:59:33.314Z,89.69
2022-12-08T18:02:00.263Z,89.54
2022-12-08T18:04:27.954Z,89.11
2022-12-08T18:06:54.852Z,88.75
2022-12-08T18:09:21.437Z,89.64
2022-12-08T18:11:47.924Z,89.72
2022-12-08T18:14:15.366Z,89.00
2022-12-08T18:16:44.496Z,89.75
2022-12-08T18:19:12.213Z,89.73
2022-12-08T18:21:39.503Z,89.64
2022-12-08T18:24:07.041Z,89.17
2022-12-08T18:26:33.692Z,89.12
2022-12-08T18:29:01.045Z,89.04
2022-12-08T18:31:27.568Z,89.48
2022-12-08T18:33:54.104Z,89.35
2022-12-08T18:36:24.366Z,89.04
2022-12-08T18:38:51.369Z,89.15
2022-12-08T18:41:20.696Z,89.37
2022-12-08T18:43:47.091Z,88.51
2022-12-08T18:46:14.760Z,89.26
2022-12-08T18:48:47.107Z,88.97
2022-12-08T18:51:15.830Z,89.54
2022-12-08T18:53:42.781Z,89.29
2022-12-08T18:56:19.581Z,88.61
2022-12-08T18:58:45.966Z,88.90
2022-12-08T19:01:16.071Z,88.27
2022-12-08T19:03:52.823Z,89.04
2022-12-08T19:06:29.880Z,89.20
2022-12-08T19:08:56.872Z,89.06
2022-12-08T19:11:25.799Z,89.04
2022-12-08T19:13:53.120Z,88.79
2022-12-08T19:16:19.772Z,88.83
2022-12-08T19:18:46.246Z,89.44
2022-12-08T19:21:13.036Z,88.86
2022-12-08T19:23:41.273Z,88.40
2022-12-08T19:26:08.330Z,88.90
2022-12-08T19:28:35.196Z,89.07
2022-12-08T19:31:09.121Z,88.53
2022-12-08T19:33:37.445Z,88.78
2022-12-08T19:36:08.993Z,88.94
2022-12-08T19:38:55.650Z,88.60
2022-12-08T19:41:41.461Z,88.29
2022-12-08T19:44:19.312Z,88.88
2022-12-08T19:46:45.709Z,89.14
2022-12-08T19:49:12.322Z,89.13
2022-12-08T19:51:38.700Z,88.89
2022-12-08T19:54:05.161Z,88.33
2022-12-08T19:56:31.621Z,88.39
2022-12-08T19:58:58.005Z,88.08
2022-12-08T20:01:24.509Z,88.44
2022-12-08T20:03:51.049Z,88.94
2022-12-08T20:06:18.674Z,88.60
2022-12-08T20:08:50.386Z,88.49
2022-12-08T20:11:17.134Z,88.67
2022-12-08T20:13:47.727Z,88.92
2022-12-08T20:16:15.796Z,89.45
2022-12-08T20:18:43.970Z,89.74
2022-12-08T20:21:12.157Z,89.57
2022-12-08T20:23:38.577Z,89.74
2022-12-08T20:26:09.955Z,89.67
2022-12-08T20:28:37.203Z,89.74
2022-12-08T20:31:04.236Z,89.31
2022-12-08T20:33:31.302Z,89.18
2022-12-08T20:36:07.917Z,89.81
2022-12-08T20:38:34.270Z,89.17
2022-12-08T20:41:00.646Z,89.12
2022-12-08T20:43:26.977Z,89.39
2022-12-08T20:45:53.374Z,89.47
2022-12-08T20:48:19.714Z,89.08
2022-12-08T20:50:52.283Z,89.10
2022-12-08T20:53:18.705Z,89.21
2022-12-08T20:55:45.165Z,89.59
2022-12-08T20:58:12.254Z,89.74
2022-12-08T21:00:38.742Z,90.03
2022-12-08T21:03:05.339Z,90.10
2022-12-08T21:05:31.980Z,90.25
2022-12-08T21:08:00.873Z,89.56
2022-12-08T21:10:27.397Z,89.75
2022-12-08T21:12:53.923Z,89.97
2022-12-08T21:15:20.432Z,89.51
2022-12-08T21:17:47.031Z,89.65
2022-12-08T21:20:13.657Z,90.06
2022-12-08T21:22:40.700Z,89.95
2022-12-08T21:25:08.219Z,90.09
2022-12-08T21:27:34.944Z,89.98
2022-12-08T21:30:01.375Z,90.30
2022-12-08T21:32:30.694Z,90.17
2022-12-08T21:34:57.404Z,89.70
2022-12-08T21:37:24.225Z,89.71
2022-12-08T21:39:50.874Z,90.35
2022-12-08T21:42:35.913Z,90.03
2022-12-08T21:45:04.162Z,89.69
2022-12-08T21:47:30.768Z,90.19
2022-12-08T21:49:57.369Z,89.83
2022-12-08T21:52:23.901Z,89.96
2022-12-08T21:54:50.362Z,90.09
2022-12-08T21:57:16.763Z,89.96
2022-12-08T21:59:43.200Z,90.30
2022-12-08T22:02:19.439Z,90.31
2022-12-08T22:04:49.517Z,90.08
2022-12-08T22:07:16.325Z,90.20
2022-12-08T22:09:42.785Z,90.41
2022-12-08T22:12:11.573Z,90.13
2022-12-08T22:14:39.262Z,90.63
2022-12-08T22:17:06.742Z,90.13
2022-12-08T22:19:33.670Z,90.47
2022-12-08T22:22:00.308Z,90.45
2022-12-08T22:24:29.751Z,90.83
2022-12-08T22:26:56.400Z,90.55
2022-12-08T22:29:22.955Z,90.40
2022-12-08T22:31:49.731Z,90.20
2022-12-08T22:34:16.366Z,89.91
2022-12-08T22:36:43.022Z,90.01
2022-12-08T22:39:09.959Z,90.43
2022-12-08T22:41:36.538Z,90.41
2022-12-08T22:44:06.501Z,90.08
2022-12-08T22:46:33.279Z,90.33
2022-12-08T22:49:00.550Z,89.69
2022-12-08T22:51:27.112Z,89.92
2022-12-08T22:53:53.792Z,90.04
2022-12-08T22:56:20.702Z,89.96
2022-12-08T22:58:47.436Z,89.98
2022-12-08T23:01:21.367Z,89.98
2022-12-08T23:03:47.944Z,89.85
2022-12-08T23:06:14.818Z,90.42
2022-12-08T23:08:41.329Z,90.18
2022-12-08T23:11:07.797Z,90.02
2022-12-08T23:13:34.262Z,90.05
2022-12-08T23:16:00.767Z,89.98
2022-12-08T23:18:27.267Z,90.13
2022-12-08T23:20:53.958Z,89.91
2022-12-08T23:23:20.292Z,90.06
2022-12-08T23:25:46.598Z,89.50
2022-12-08T23:28:13.200Z,89.35
2022-12-08T23:30:40.785Z,89.62
2022-12-08T23:33:07.289Z,89.62
2022-12-08T23:35:33.724Z,89.77
2022-12-08T23:38:00.289Z,89.78
2022-12-08T23:40:27.084Z,89.58
2022-12-08T23:42:53.478Z,89.51
2022-12-08T23:45:19.829Z,89.35
2022-12-08T23:47:46.242Z,89.40
2022-12-08T23:50:12.788Z,89.28
2022-12-08T23:52:40.146Z,89.44
2022-12-08T23:55:07.866Z,89.41
2022-12-08T23:57:37.545Z,89.29
